createdAt,value
2018-12-12T00:00:41.065Z,89.70
2018-12-12T00:03:08.894Z,90.00
2018-12-12T00:05:36.810Z,89.80
2018-12-12T00:08:04.844Z,89.70
2018-12-12T00:10:32.805Z,90.00
2018-12-12T00:13:00.612Z,90.10
2018-12-12T00:15:28.505Z,90.30
2018-12-12T00:17:56.756Z,90.50
2018-12-12T00:20:24.597Z,90.60
2018-12-12T00:22:52.968Z,90.60
2018-12-12T00:25:20.894Z,90.90
2018-12-12T00:27:48.790Z,91.10
2018-12-12T00:30:16.666Z,91.30
2018-12-12T00:32:44.555Z,91.40
2018-12-12T00:35:12.455Z,91.60
2018-12-12T00:37:40.246Z,92.10
2018-12-12T00:40:08.213Z,92.20
2018-12-12T00:42:36.015Z,92.20
2018-12-12T00:45:04.512Z,92.20
2018-12-12T00:47:32.390Z,92.10
2018-12-12T00:50:00.523Z,92.10
2018-12-12T00:52:29.243Z,92.10
2018-12-12T00:54:57.234Z,91.80
2018-12-12T00:57:25.301Z,91.20
2018-12-12T00:59:53.495Z,91.30
2018-12-12T01:02:21.481Z,91.10
2018-12-12T01:04:49.330Z,90.70
2018-12-12T01:07:17.270Z,90.60
2018-12-12T01:09:45.133Z,90.60
2018-12-12T01:12:13.513Z,90.50
2018-12-12T01:14:41.307Z,90.60
2018-12-12T01:17:09.134Z,90.50
2018-12-12T01:19:36.975Z,90.40
2018-12-12T01:22:04.783Z,90.60
2018-12-12T01:24:32.759Z,90.20
2018-12-12T01:27:00.571Z,89.60
2018-12-12T01:29:28.504Z,89.90
2018-12-12T01:31:56.840Z,90.30
2018-12-12T01:34:24.959Z,90.20
2018-12-12T01:36:53.097Z,90.00
2018-12-12T01:39:20.909Z,90.10
2018-12-12T01:41:48.823Z,89.80
2018-12-12T01:44:16.610Z,90.50
2018-12-12T01:46:44.408Z,90.30
2018-12-12T01:49:12.201Z,90.10
2018-12-12T01:51:39.958Z,90.00
2018-12-12T01:54:07.697Z,89.80
2018-12-12T01:56:35.506Z,89.40
2018-12-12T01:59:03.468Z,89.00
2018-12-12T02:01:31.262Z,89.00
2018-12-12T02:03:59.159Z,89.90
2018-12-12T02:06:26.998Z,90.40
2018-12-12T02:08:54.812Z,90.70
2018-12-12T02:11:22.654Z,90.90
2018-12-12T02:13:50.984Z,90.70
2018-12-12T02:16:19.021Z,90.50
2018-12-12T02:18:47.062Z,90.60
2018-12-12T02:21:14.887Z,90.60
2018-12-12T02:23:42.747Z,90.40
2018-12-12T02:26:10.620Z,90.20
2018-12-12T02:28:38.592Z,89.50
2018-12-12T02:31:06.460Z,88.80
2018-12-12T02:33:34.448Z,89.70
2018-12-12T02:36:02.387Z,89.30
2018-12-12T02:38:34.641Z,88.60
2018-12-12T02:41:02.484Z,88.30
2018-12-12T02:43:30.368Z,88.90
2018-12-12T02:45:58.206Z,89.50
2018-12-12T02:48:26.068Z,89.10
2018-12-12T02:50:54.234Z,87.80
2018-12-12T02:53:22.327Z,87.90
2018-12-12T02:55:50.309Z,86.90
2018-12-12T02:58:18.343Z,87.00
2018-12-12T03:00:46.428Z,86.30
2018-12-12T03:03:14.375Z,86.20
2018-12-12T03:05:42.187Z,85.70
2018-12-12T03:08:10.116Z,86.10
2018-12-12T03:10:37.983Z,86.30
2018-12-12T03:13:05.858Z,87.10
2018-12-12T03:15:33.883Z,87.20
2018-12-12T03:18:01.946Z,86.80
2018-12-12T03:20:29.960Z,86.40
2018-12-12T03:22:57.772Z,86.40
2018-12-12T03:25:25.593Z,85.90
2018-12-12T03:27:53.411Z,85.90
2018-12-12T03:30:21.199Z,85.80
2018-12-12T03:32:49.087Z,86.00
2018-12-12T03:35:16.976Z,86.30
2018-12-12T03:37:44.867Z,86.70
2018-12-12T03:40:13.666Z,86.40
2018-12-12T03:42:41.904Z,85.40
2018-12-12T03:45:09.749Z,84.50
2018-12-12T03:47:37.515Z,84.80
2018-12-12T03:50:05.628Z,84.60
2018-12-12T03:52:33.436Z,85.10
2018-12-12T03:55:01.442Z,84.70
2018-12-12T03:57:29.304Z,83.60
2018-12-12T03:59:57.103Z,83.60
2018-12-12T04:02:24.893Z,83.80
2018-12-12T04:04:52.681Z,81.30
2018-12-12T04:07:20.528Z,81.20
2018-12-12T04:09:48.326Z,82.00
2018-12-12T04:12:16.210Z,79.20
2018-12-12T04:14:43.964Z,79.50
2018-12-12T04:17:12.226Z,79.30
2018-12-12T04:19:40.328Z,80.20
2018-12-12T04:22:08.191Z,78.70
2018-12-12T04:24:36.332Z,78.90
2018-12-12T04:27:04.178Z,79.40
2018-12-12T04:29:32.066Z,78.70
2018-12-12T04:31:59.933Z,79.40
2018-12-12T04:34:27.748Z,80.40
2018-12-12T04:36:55.603Z,79.60
2018-12-12T04:39:23.512Z,78.60
2018-12-12T04:41:51.364Z,79.20
2018-12-12T04:44:19.831Z,80.30
2018-12-12T04:46:47.620Z,80.50
2018-12-12T04:49:15.462Z,79.60
2018-12-12T04:51:43.261Z,81.00
2018-12-12T04:54:11.031Z,81.40
2018-12-12T04:56:39.123Z,81.10
2018-12-12T04:59:07.956Z,79.80
2018-12-12T05:01:35.769Z,79.80
2018-12-12T05:04:03.636Z,79.50
2018-12-12T05:06:31.651Z,79.00
2018-12-12T05:08:59.443Z,79.30
2018-12-12T05:11:27.179Z,79.50
2018-12-12T05:13:54.931Z,77.60
2018-12-12T05:16:23.279Z,78.70
2018-12-12T05:18:51.133Z,78.70
2018-12-12T05:21:19.003Z,79.60
2018-12-12T05:23:46.727Z,80.00
2018-12-12T05:26:14.467Z,78.90
2018-12-12T05:28:42.580Z,79.20
2018-12-12T05:31:10.477Z,79.60
2018-12-12T05:33:38.251Z,80.40
2018-12-12T05:36:06.094Z,79.00
2018-12-12T05:38:34.027Z,78.70
2018-12-12T05:41:01.808Z,78.40
2018-12-12T05:43:29.540Z,79.40
2018-12-12T05:45:57.299Z,78.60
2018-12-12T05:48:25.056Z,78.90
2018-12-12T05:50:52.809Z,79.30
2018-12-12T05:53:20.575Z,79.70
2018-12-12T05:55:48.351Z,79.60
2018-12-12T05:58:16.219Z,79.00
2018-12-12T06:00:44.191Z,79.10
2018-12-12T06:03:11.944Z,77.70
2018-12-12T06:05:39.716Z,76.60
2018-12-12T06:08:07.597Z,78.00
2018-12-12T06:10:35.484Z,77.00
2018-12-12T06:13:03.345Z,77.80
2018-12-12T06:15:31.176Z,80.70
2018-12-12T06:17:59.008Z,80.40
2018-12-12T06:20:26.799Z,80.30
2018-12-12T06:22:54.576Z,81.70
2018-12-12T06:25:22.342Z,83.10
2018-12-12T06:27:50.237Z,82.80
2018-12-12T06:30:18.069Z,82.10
2018-12-12T06:32:45.791Z,79.80
2018-12-12T06:35:13.584Z,80.40
2018-12-12T06:37:41.339Z,79.60
2018-12-12T06:40:09.033Z,79.70
2018-12-12T06:42:37.113Z,80.30
2018-12-12T06:45:05.841Z,80.10
2018-12-12T06:47:33.975Z,79.40
2018-12-12T06:50:01.836Z,79.90
2018-12-12T06:52:29.592Z,80.70
2018-12-12T06:54:57.342Z,80.90
2018-12-12T06:57:25.407Z,80.80
2018-12-12T06:59:53.350Z,79.30
2018-12-12T07:02:21.083Z,79.20
2018-12-12T07:04:49.130Z,78.80
2018-12-12T07:07:17.135Z,79.10
2018-12-12T07:09:44.911Z,79.90
2018-12-12T07:12:14.033Z,79.60
2018-12-12T07:14:42.881Z,79.30
2018-12-12T07:17:10.779Z,79.70
2018-12-12T07:19:38.499Z,77.60
2018-12-12T07:22:07.403Z,77.00
2018-12-12T07:24:35.408Z,74.80
2018-12-12T07:27:04.225Z,74.10
2018-12-12T07:29:31.967Z,75.00
2018-12-12T07:31:59.739Z,74.20
2018-12-12T07:34:27.633Z,73.80
2018-12-12T07:36:55.455Z,73.30
2018-12-12T07:39:23.290Z,73.80
2018-12-12T07:41:51.217Z,73.90
2018-12-12T07:44:19.057Z,74.40
2018-12-12T07:46:47.154Z,74.40
2018-12-12T07:49:16.395Z,73.90
2018-12-12T07:51:44.259Z,73.90
2018-12-12T07:54:11.991Z,74.90
2018-12-12T07:56:39.751Z,75.30
2018-12-12T07:59:08.423Z,76.20
2018-12-12T08:01:36.324Z,76.60
2018-12-12T08:04:04.204Z,73.10
2018-12-12T08:06:32.039Z,72.00
2018-12-12T08:08:59.882Z,69.90
2018-12-12T08:11:27.619Z,67.70
2018-12-12T08:13:55.394Z,65.50
2018-12-12T08:16:23.435Z,62.60
2018-12-12T08:18:51.216Z,62.20
2018-12-12T08:21:19.849Z,60.80
2018-12-12T08:23:48.207Z,60.70
2018-12-12T08:26:15.976Z,61.30
2018-12-12T08:28:44.248Z,60.60
2018-12-12T08:31:12.923Z,60.80
2018-12-12T08:33:41.783Z,60.30
2018-12-12T08:36:09.598Z,59.20
2018-12-12T08:38:37.436Z,59.10
2018-12-12T08:41:05.295Z,59.80
2018-12-12T08:43:33.139Z,58.40
2018-12-12T08:46:00.930Z,56.90
2018-12-12T08:48:28.712Z,58.00
2018-12-12T08:50:56.475Z,59.20
2018-12-12T08:53:24.251Z,57.70
2018-12-12T08:55:52.026Z,55.80
2018-12-12T08:58:19.767Z,54.80
2018-12-12T09:00:47.564Z,52.80
2018-12-12T09:03:17.761Z,51.80
2018-12-12T09:05:45.111Z,52.80
2018-12-12T09:08:12.992Z,53.00
2018-12-12T09:10:40.752Z,52.10
2018-12-12T09:13:08.527Z,49.50
2018-12-12T09:15:36.279Z,50.20
2018-12-12T09:18:04.211Z,49.60
2018-12-12T09:20:31.972Z,49.40
2018-12-12T09:22:59.752Z,48.50
2018-12-12T09:25:27.523Z,48.70
2018-12-12T09:27:55.266Z,47.30
2018-12-12T09:30:23.055Z,47.00
2018-12-12T09:32:50.859Z,48.30
2018-12-12T09:35:18.832Z,48.50
2018-12-12T09:37:46.647Z,46.20
2018-12-12T09:40:14.532Z,45.00
2018-12-12T09:42:42.263Z,46.40
2018-12-12T09:45:10.023Z,46.60
2018-12-12T09:47:37.851Z,47.40
2018-12-12T09:50:05.930Z,43.10
2018-12-12T09:52:33.683Z,44.20
2018-12-12T09:55:01.542Z,43.70
2018-12-12T09:57:29.341Z,42.90
2018-12-12T09:59:57.152Z,42.70
2018-12-12T10:02:24.995Z,40.60
2018-12-12T10:04:52.867Z,39.90
2018-12-12T10:07:20.655Z,40.10
2018-12-12T10:09:48.470Z,39.80
2018-12-12T10:12:16.280Z,39.40
2018-12-12T10:14:44.091Z,38.50
2018-12-12T10:17:11.998Z,37.20
2018-12-12T10:19:40.078Z,36.80
2018-12-12T10:22:07.984Z,36.60
2018-12-12T10:24:36.104Z,36.60
2018-12-12T10:27:03.997Z,35.20
2018-12-12T10:29:31.765Z,35.10
2018-12-12T10:32:00.154Z,36.00
2018-12-12T10:34:27.894Z,35.20
2018-12-12T10:36:55.637Z,35.10
2018-12-12T10:39:23.467Z,36.80
2018-12-12T10:41:51.223Z,35.80
2018-12-12T10:44:19.055Z,32.90
2018-12-12T10:46:46.792Z,34.60
2018-12-12T10:49:14.631Z,34.20
2018-12-12T10:51:42.831Z,34.10
2018-12-12T10:54:10.596Z,34.90
2018-12-12T10:56:38.407Z,34.40
2018-12-12T10:59:07.086Z,33.40
2018-12-12T11:01:40.540Z,33.60
2018-12-12T11:04:08.554Z,33.70
2018-12-12T11:06:36.525Z,32.90
2018-12-12T11:09:05.984Z,31.90
2018-12-12T11:11:33.835Z,33.30
2018-12-12T11:14:01.701Z,31.70
2018-12-12T11:16:29.507Z,30.40
2018-12-12T11:18:57.343Z,29.50
2018-12-12T11:21:25.234Z,29.50
2018-12-12T11:23:53.062Z,27.20
2018-12-12T11:26:20.836Z,27.00
2018-12-12T11:28:49.292Z,25.40
2018-12-12T11:31:17.083Z,26.20
2018-12-12T11:33:50.305Z,26.60
2018-12-12T11:36:14.680Z,27.50
2018-12-12T11:38:42.467Z,24.70
2018-12-12T11:41:10.262Z,25.00
2018-12-12T11:43:38.166Z,25.30
2018-12-12T11:46:06.247Z,25.00
2018-12-12T11:48:33.999Z,24.60
2018-12-12T11:51:01.819Z,24.50
2018-12-12T11:53:29.550Z,23.60
2018-12-12T11:55:57.308Z,23.00
2018-12-12T11:58:25.059Z,23.60
2018-12-12T12:00:52.823Z,23.00
2018-12-12T12:03:20.549Z,23.60
2018-12-12T12:05:48.334Z,22.60
2018-12-12T12:08:16.103Z,22.80
2018-12-12T12:10:43.827Z,22.70
2018-12-12T12:13:11.659Z,23.60
2018-12-12T12:15:39.453Z,23.20
2018-12-12T12:18:07.268Z,24.50
2018-12-12T12:20:35.042Z,24.50
2018-12-12T12:23:02.779Z,25.00
2018-12-12T12:25:30.995Z,24.20
2018-12-12T12:27:58.799Z,25.30
2018-12-12T12:30:26.507Z,25.30
2018-12-12T12:32:54.574Z,24.60
2018-12-12T12:35:22.305Z,24.70
2018-12-12T12:37:50.051Z,24.70
2018-12-12T12:40:18.758Z,25.00
2018-12-12T12:42:46.495Z,24.70
2018-12-12T12:45:14.583Z,23.70
2018-12-12T12:47:42.291Z,23.20
2018-12-12T12:50:10.019Z,23.50
2018-12-12T12:52:37.779Z,23.60
2018-12-12T12:55:05.889Z,23.30
2018-12-12T12:57:33.719Z,22.60
2018-12-12T13:00:01.485Z,22.40
2018-12-12T13:02:29.356Z,21.80
2018-12-12T13:04:57.099Z,22.90
2018-12-12T13:07:24.847Z,21.20
2018-12-12T13:09:52.567Z,20.80
2018-12-12T13:12:20.402Z,22.10
2018-12-12T13:14:48.181Z,22.20
2018-12-12T13:17:15.939Z,21.30
2018-12-12T13:19:43.704Z,21.80
2018-12-12T13:22:11.434Z,22.10
2018-12-12T13:24:39.330Z,23.20
2018-12-12T13:27:07.103Z,23.80
2018-12-12T13:29:34.995Z,24.00
2018-12-12T13:32:02.803Z,23.30
2018-12-12T13:34:30.535Z,22.30
2018-12-12T13:36:58.275Z,22.00
2018-12-12T13:39:25.983Z,21.80
2018-12-12T13:41:53.722Z,21.00
2018-12-12T13:44:21.454Z,21.40
2018-12-12T13:46:49.235Z,21.70
2018-12-12T13:49:17.019Z,21.50
2018-12-12T13:51:44.819Z,21.30
2018-12-12T13:54:12.600Z,21.70
2018-12-12T13:56:40.379Z,21.80
2018-12-12T13:59:08.154Z,21.80
2018-12-12T14:01:36.051Z,22.00
2018-12-12T14:04:04.043Z,21.30
2018-12-12T14:06:31.815Z,22.00
2018-12-12T14:09:00.016Z,21.70
2018-12-12T14:11:27.782Z,21.40
2018-12-12T14:13:55.511Z,21.70
2018-12-12T14:16:23.371Z,22.20
2018-12-12T14:18:51.135Z,22.90
2018-12-12T14:21:19.107Z,23.40
2018-12-12T14:23:49.235Z,23.40
2018-12-12T14:26:17.103Z,23.70
2018-12-12T14:28:45.123Z,23.40
2018-12-12T14:31:12.964Z,23.60
2018-12-12T14:33:40.770Z,23.70
2018-12-12T14:36:08.739Z,23.10
2018-12-12T14:38:36.827Z,23.60
2018-12-12T14:41:04.662Z,23.40
2018-12-12T14:43:32.490Z,23.90
2018-12-12T14:46:00.250Z,24.10
2018-12-12T14:48:30.347Z,24.30
2018-12-12T14:50:57.836Z,24.50
2018-12-12T14:53:25.608Z,24.60
2018-12-12T14:55:53.360Z,25.20
2018-12-12T14:58:21.112Z,25.90
2018-12-12T15:00:48.889Z,26.70
2018-12-12T15:03:16.664Z,26.30
2018-12-12T15:05:44.506Z,26.80
2018-12-12T15:08:12.374Z,27.10
2018-12-12T15:10:40.191Z,27.50
2018-12-12T15:13:08.019Z,28.10
2018-12-12T15:15:35.787Z,29.30
2018-12-12T15:18:03.670Z,29.50
2018-12-12T15:20:31.401Z,30.10
2018-12-12T15:22:59.114Z,31.50
2018-12-12T15:25:26.881Z,32.60
2018-12-12T15:27:54.612Z,33.50
2018-12-12T15:30:22.327Z,35.50
2018-12-12T15:32:50.570Z,38.10
2018-12-12T15:35:19.446Z,41.40
2018-12-12T15:37:47.184Z,43.40
2018-12-12T15:40:15.003Z,45.30
2018-12-12T15:42:42.866Z,47.70
2018-12-12T15:45:10.743Z,49.10
2018-12-12T15:47:38.567Z,49.60
2018-12-12T15:50:06.845Z,51.40
2018-12-12T15:52:34.621Z,52.20
2018-12-12T15:55:02.493Z,53.50
2018-12-12T15:57:30.283Z,54.00
2018-12-12T15:59:58.051Z,55.00
2018-12-12T16:02:25.898Z,56.20
2018-12-12T16:04:53.679Z,56.30
2018-12-12T16:07:21.462Z,57.30
2018-12-12T16:09:49.210Z,57.80
2018-12-12T16:12:17.015Z,58.60
2018-12-12T16:14:44.879Z,59.00
2018-12-12T16:17:13.053Z,59.70
2018-12-12T16:19:40.911Z,60.30
2018-12-12T16:22:08.779Z,60.60
2018-12-12T16:24:36.546Z,61.40
2018-12-12T16:27:04.390Z,62.20
2018-12-12T16:29:32.143Z,62.70
2018-12-12T16:31:59.858Z,63.30
2018-12-12T16:34:27.595Z,63.90
2018-12-12T16:36:55.399Z,64.40
2018-12-12T16:39:23.140Z,64.50
2018-12-12T16:41:50.891Z,65.30
2018-12-12T16:44:18.916Z,65.60
2018-12-12T16:46:46.727Z,66.40
2018-12-12T16:49:14.740Z,66.40
2018-12-12T16:51:42.517Z,66.90
2018-12-12T16:54:10.414Z,67.70
2018-12-12T16:56:38.235Z,67.50
2018-12-12T16:59:06.023Z,68.30
2018-12-12T17:01:33.780Z,68.40
2018-12-12T17:04:01.650Z,69.20
2018-12-12T17:06:29.449Z,69.10
2018-12-12T17:08:57.519Z,69.30
2018-12-12T17:11:25.276Z,69.80
2018-12-12T17:13:53.035Z,69.80
2018-12-12T17:16:20.863Z,69.90
2018-12-12T17:18:48.613Z,70.30
2018-12-12T17:21:16.350Z,70.50
2018-12-12T17:23:44.177Z,70.50
2018-12-12T17:26:11.942Z,70.50
2018-12-12T17:28:39.795Z,71.10
2018-12-12T17:31:08.671Z,71.30
2018-12-12T17:33:37.531Z,72.00
2018-12-12T17:36:05.308Z,72.20
2018-12-12T17:38:38.318Z,72.50
2018-12-12T17:41:06.299Z,72.70
2018-12-12T17:43:34.050Z,72.20
2018-12-12T17:46:02.091Z,72.70
2018-12-12T17:48:29.942Z,73.30
2018-12-12T17:50:57.663Z,73.60
2018-12-12T17:53:25.411Z,74.30
2018-12-12T17:55:53.483Z,74.00
2018-12-12T17:58:21.331Z,74.50
2018-12-12T18:00:49.109Z,74.90
2018-12-12T18:03:16.945Z,74.80
2018-12-12T18:05:44.691Z,75.30
2018-12-12T18:08:12.499Z,75.70
2018-12-12T18:10:40.276Z,75.30
2018-12-12T18:13:08.177Z,75.90
2018-12-12T18:15:35.931Z,75.30
2018-12-12T18:18:03.774Z,74.70
2018-12-12T18:20:32.168Z,74.80
2018-12-12T18:23:01.371Z,74.90
2018-12-12T18:25:29.203Z,74.90
2018-12-12T18:27:57.266Z,75.20
2018-12-12T18:30:25.304Z,75.60
2018-12-12T18:32:53.111Z,74.70
2018-12-12T18:35:21.991Z,74.60
2018-12-12T18:37:49.886Z,74.30
2018-12-12T18:40:17.782Z,74.40
2018-12-12T18:42:45.621Z,74.30
2018-12-12T18:45:13.375Z,74.50
2018-12-12T18:47:41.150Z,74.10
2018-12-12T18:50:09.278Z,74.10
2018-12-12T18:52:37.084Z,74.00
2018-12-12T18:55:05.260Z,74.20
2018-12-12T18:57:33.151Z,74.70
2018-12-12T19:00:00.983Z,74.90
2018-12-12T19:02:28.774Z,75.00
2018-12-12T19:04:56.539Z,75.10
2018-12-12T19:07:24.406Z,75.40
2018-12-12T19:09:53.188Z,75.90
2018-12-12T19:12:20.987Z,75.50
2018-12-12T19:14:54.415Z,75.90
2018-12-12T19:17:22.190Z,76.10
2018-12-12T19:19:50.950Z,75.60
2018-12-12T19:22:19.108Z,76.10
2018-12-12T19:24:46.923Z,75.60
2018-12-12T19:27:15.023Z,76.10
2018-12-12T19:29:42.851Z,76.50
2018-12-12T19:32:10.690Z,77.30
2018-12-12T19:34:38.596Z,76.10
2018-12-12T19:37:06.433Z,75.60
2018-12-12T19:39:34.335Z,75.30
2018-12-12T19:42:02.331Z,75.50
2018-12-12T19:44:30.258Z,75.80
2018-12-12T19:46:58.254Z,75.80
2018-12-12T19:49:26.123Z,75.30
2018-12-12T19:51:54.054Z,74.80
2018-12-12T19:54:24.444Z,74.40
2018-12-12T19:56:53.423Z,74.20
2018-12-12T19:59:23.747Z,73.30
2018-12-12T20:01:51.978Z,73.30
2018-12-12T20:04:20.194Z,73.60
2018-12-12T20:06:48.226Z,73.60
2018-12-12T20:09:16.377Z,72.90
2018-12-12T20:11:44.354Z,72.20
2018-12-12T20:14:12.391Z,72.70
2018-12-12T20:16:40.489Z,73.00
2018-12-12T20:19:08.588Z,73.70
2018-12-12T20:21:36.566Z,74.20
2018-12-12T20:24:04.693Z,74.20
2018-12-12T20:26:32.573Z,74.40
2018-12-12T20:29:00.364Z,74.40
2018-12-12T20:31:28.343Z,73.90
2018-12-12T20:33:56.122Z,74.10
2018-12-12T20:36:24.035Z,73.80
2018-12-12T20:43:31.839Z,73.80
2018-12-12T20:49:35.261Z,74.30
2018-12-12T20:52:03.091Z,74.70
2018-12-12T20:54:30.867Z,75.00
2018-12-12T20:56:58.651Z,75.10
2018-12-12T20:59:26.475Z,74.90
2018-12-12T21:01:54.488Z,74.90
2018-12-12T21:04:22.427Z,75.00
2018-12-12T21:06:50.379Z,75.30
2018-12-12T21:09:18.478Z,74.80
2018-12-12T21:11:46.559Z,75.20
2018-12-12T21:14:17.879Z,75.20
2018-12-12T21:16:46.102Z,74.70
2018-12-12T21:19:14.249Z,73.30
2018-12-12T21:21:42.469Z,73.00
2018-12-12T21:24:10.467Z,73.90
2018-12-12T21:26:38.715Z,74.40
2018-12-12T21:29:06.491Z,75.10
2018-12-12T21:31:34.266Z,75.40
2018-12-12T21:34:02.276Z,75.40
2018-12-12T21:36:30.105Z,75.40
2018-12-12T21:38:57.919Z,75.60
2018-12-12T21:41:25.770Z,76.10
2018-12-12T21:43:53.719Z,76.40
2018-12-12T21:46:21.539Z,76.20
2018-12-12T21:48:49.393Z,76.10
2018-12-12T21:51:17.347Z,75.30
2018-12-12T21:53:45.280Z,74.70
2018-12-12T21:56:13.464Z,75.10
2018-12-12T21:58:41.559Z,75.30
2018-12-12T22:01:09.624Z,75.00
2018-12-12T22:03:37.453Z,74.50
2018-12-12T22:06:07.629Z,74.60
2018-12-12T22:08:36.413Z,74.70
2018-12-12T22:11:04.783Z,74.50
2018-12-12T22:13:34.031Z,73.30
2018-12-12T22:16:01.784Z,73.50
2018-12-12T22:18:29.521Z,73.90
2018-12-12T22:20:57.335Z,73.70
2018-12-12T22:23:25.435Z,73.90
2018-12-12T22:25:54.116Z,74.20
2018-12-12T22:28:22.013Z,74.30
2018-12-12T22:30:49.779Z,74.10
2018-12-12T22:33:17.846Z,74.10
2018-12-12T22:35:45.590Z,73.70
2018-12-12T22:38:13.641Z,73.40
2018-12-12T22:40:41.554Z,73.60
2018-12-12T22:43:09.322Z,73.60
2018-12-12T22:45:37.095Z,73.00
2018-12-12T22:48:04.895Z,72.80
2018-12-12T22:50:32.660Z,73.20
2018-12-12T22:53:00.410Z,73.80
2018-12-12T22:55:28.145Z,74.40
2018-12-12T22:57:55.927Z,75.00
2018-12-12T23:00:29.074Z,75.20
2018-12-12T23:02:56.919Z,75.30
2018-12-12T23:05:24.720Z,75.60
2018-12-12T23:07:52.473Z,75.80
2018-12-12T23:10:20.283Z,76.10
2018-12-12T23:12:48.047Z,76.10
2018-12-12T23:15:15.851Z,75.70
2018-12-12T23:17:43.692Z,75.70
2018-12-12T23:20:11.587Z,75.30
2018-12-12T23:22:39.422Z,75.30
2018-12-12T23:25:07.198Z,75.50
2018-12-12T23:27:35.036Z,75.80
2018-12-12T23:30:03.630Z,75.90
2018-12-12T23:32:31.390Z,76.30
2018-12-12T23:34:59.163Z,76.00
2018-12-12T23:37:26.927Z,76.00
2018-12-12T23:39:54.773Z,76.10
2018-12-12T23:42:22.521Z,76.50
2018-12-12T23:44:50.319Z,76.40
2018-12-12T23:47:18.271Z,75.90
2018-12-12T23:49:46.056Z,76.10
2018-12-12T23:52:13.862Z,76.20
2018-12-12T23:54:41.686Z,75.50
2018-12-12T23:57:09.415Z,75.30
2018-12-12T23:59:37.450Z,75.00
